Time;durP1;ratioP1;P1;durP2;ratioP2;P2;SDS_P1;SDS_P2;PMS_P1;PMS_P2;Temp;Humidity;BMP_temperature;BMP_pressure;BME280_temperature;BME280_humidity;BME280_pressure;Samples;Min_cycle;Max_cycle;Signal;HPM_P1;HPM_P2
2021/06/26 00:00:23;;;;;;;13.73;12.32;;;15.10;97.90;;;;;;5015977;28;20239;-77
2021/06/26 00:02:49;;;;;;;12.93;11.60;;;15.10;98.00;;;;;;5015605;28;20199;-76
2021/06/26 00:05:16;;;;;;;13.13;11.88;;;15.10;98.10;;;;;;5017888;28;20308;-76
2021/06/26 00:07:44;;;;;;;13.23;11.90;;;15.00;98.10;;;;;;5015071;28;20259;-77
2021/06/26 00:10:13;;;;;;;13.50;12.10;;;15.00;98.30;;;;;;5015535;28;20621;-77
2021/06/26 00:12:40;;;;;;;15.25;12.75;;;15.00;98.40;;;;;;5015117;28;20200;-74
2021/06/26 00:15:09;;;;;;;14.30;12.02;;;14.90;98.00;;;;;;5014962;28;20365;-76
2021/06/26 00:17:36;;;;;;;11.98;10.85;;;14.90;98.70;;;;;;5015252;28;20284;-76
2021/06/26 00:20:04;;;;;;;14.10;12.20;;;14.90;98.70;;;;;;5014826;28;20211;-77
2021/06/26 00:22:31;;;;;;;19.08;12.20;;;14.90;99.00;;;;;;5014961;28;20275;-77
2021/06/26 00:24:59;;;;;;;16.35;11.73;;;14.90;99.10;;;;;;5015387;28;20307;-76
2021/06/26 00:27:28;;;;;;;14.45;12.48;;;14.90;99.00;;;;;;5016436;28;20231;-77
2021/06/26 00:29:55;;;;;;;13.25;11.95;;;14.80;99.40;;;;;;5016028;28;20298;-77
2021/06/26 00:32:22;;;;;;;13.40;11.60;;;14.80;99.80;;;;;;5017743;28;20517;-76
2021/06/26 00:34:48;;;;;;;13.13;11.82;;;14.80;99.90;;;;;;5018245;28;20249;-76
2021/06/26 00:37:15;;;;;;;16.38;12.45;;;14.90;99.90;;;;;;5018525;28;20207;-77
2021/06/26 00:39:42;;;;;;;13.70;12.30;;;14.80;99.90;;;;;;5017086;28;20210;-77
2021/06/26 00:42:11;;;;;;;14.05;12.68;;;14.80;99.90;;;;;;5018992;28;20284;-77
2021/06/26 00:44:38;;;;;;;13.65;11.70;;;14.80;99.90;;;;;;5019607;28;20269;-77
2021/06/26 00:47:11;;;;;;;15.13;12.60;;;14.70;99.90;;;;;;5037346;28;20259;-76
2021/06/26 00:49:39;;;;;;;14.27;12.52;;;14.70;99.90;;;;;;5023303;28;20200;-77
2021/06/26 00:52:06;;;;;;;14.68;11.70;;;14.60;99.90;;;;;;5037455;28;20211;-76
2021/06/26 00:54:33;;;;;;;14.75;12.35;;;14.60;99.90;;;;;;5019924;28;20211;-76
2021/06/26 00:57:01;;;;;;;13.55;12.15;;;14.60;99.90;;;;;;5014806;28;20251;-77
2021/06/26 00:59:30;;;;;;;12.65;11.35;;;14.60;99.90;;;;;;5015294;28;20258;-77
2021/06/26 01:01:57;;;;;;;12.55;11.35;;;14.60;99.90;;;;;;5014883;28;20650;-77
2021/06/26 01:04:24;;;;;;;14.93;13.18;;;14.50;99.90;;;;;;5013639;28;20640;-77
2021/06/26 01:06:51;;;;;;;13.38;12.07;;;14.50;99.90;;;;;;5013952;28;20319;-76
2021/06/26 01:09:18;;;;;;;13.18;11.88;;;14.50;99.90;;;;;;5015483;28;20322;-77
2021/06/26 01:11:45;;;;;;;14.02;12.35;;;14.40;99.90;;;;;;5014657;28;20203;-77
2021/06/26 01:14:12;;;;;;;14.60;11.48;;;14.40;99.90;;;;;;5014156;28;20298;-77
2021/06/26 01:16:40;;;;;;;12.45;11.20;;;14.30;99.90;;;;;;5014136;28;20270;-77
2021/06/26 01:19:07;;;;;;;15.98;12.20;;;14.30;99.90;;;;;;5015514;28;20294;-76
2021/06/26 01:21:36;;;;;;;12.02;10.90;;;14.20;99.90;;;;;;5018194;28;20238;-77
2021/06/26 01:24:05;;;;;;;15.23;11.80;;;14.20;99.90;;;;;;5016415;28;20686;-77
2021/06/26 01:26:35;;;;;;;15.82;12.43;;;14.10;99.90;;;;;;5019064;28;20219;-77
2021/06/26 01:29:03;;;;;;;13.55;12.23;;;14.10;99.90;;;;;;5013345;28;20224;-77
2021/06/26 01:31:30;;;;;;;12.07;10.98;;;14.10;99.90;;;;;;5013780;28;20646;-76
2021/06/26 01:33:57;;;;;;;12.82;11.60;;;14.10;99.90;;;;;;5013342;28;20204;-76
2021/06/26 01:36:24;;;;;;;11.90;10.65;;;14.10;99.90;;;;;;5013797;28;20312;-77
2021/06/26 01:38:55;;;;;;;13.00;11.10;;;14.00;99.90;;;;;;5013838;28;20236;-77
2021/06/26 01:41:26;;;;;;;13.80;12.23;;;14.00;99.90;;;;;;5013253;28;20208;-77
2021/06/26 01:43:53;;;;;;;13.77;12.30;;;14.00;99.90;;;;;;5013071;28;20548;-77
2021/06/26 01:46:20;;;;;;;19.13;11.18;;;14.00;99.90;;;;;;5013170;28;20282;-77
2021/06/26 01:48:47;;;;;;;12.00;10.80;;;14.00;99.90;;;;;;4993841;28;20323;-77
2021/06/26 01:51:14;;;;;;;14.00;11.13;;;14.00;99.90;;;;;;4994087;28;20716;-77
2021/06/26 01:53:41;;;;;;;13.35;11.95;;;14.00;99.90;;;;;;5013343;28;20204;-76
2021/06/26 01:56:07;;;;;;;14.70;12.18;;;13.90;99.90;;;;;;5013098;28;20778;-79
2021/06/26 01:58:36;;;;;;;12.90;11.60;;;13.90;99.90;;;;;;5013653;28;20238;-77
2021/06/26 02:01:03;;;;;;;12.20;10.93;;;13.90;99.90;;;;;;5014316;28;20227;-76
2021/06/26 02:03:30;;;;;;;13.07;11.68;;;13.90;99.90;;;;;;5019070;28;20718;-77
2021/06/26 02:05:56;;;;;;;13.73;12.07;;;13.90;99.90;;;;;;5013521;28;20232;-77
2021/06/26 02:08:23;;;;;;;13.32;12.02;;;13.80;99.90;;;;;;5013001;28;20582;-77
2021/06/26 02:10:50;;;;;;;13.13;10.65;;;13.90;99.90;;;;;;5013723;28;20420;-77
2021/06/26 02:13:17;;;;;;;14.60;10.93;;;13.80;99.90;;;;;;5012805;28;20684;-77
2021/06/26 02:15:45;;;;;;;12.45;10.90;;;13.80;99.90;;;;;;5013185;28;20652;-77
2021/06/26 02:18:12;;;;;;;12.20;10.57;;;13.70;99.90;;;;;;5012664;28;20287;-77
2021/06/26 02:20:39;;;;;;;12.65;11.35;;;13.70;99.90;;;;;;5013190;28;20222;-77
2021/06/26 02:23:06;;;;;;;13.15;10.95;;;13.70;99.90;;;;;;5013496;28;20290;-77
2021/06/26 02:25:33;;;;;;;13.35;11.27;;;13.70;99.90;;;;;;5013202;28;20316;-76
2021/06/26 02:28:00;;;;;;;13.15;11.02;;;13.70;99.90;;;;;;5013986;28;20204;-77
2021/06/26 02:30:26;;;;;;;13.30;11.90;;;13.70;99.90;;;;;;5013754;28;20218;-77
2021/06/26 02:32:55;;;;;;;13.63;11.93;;;13.60;99.90;;;;;;5013167;28;20642;-77
2021/06/26 02:35:22;;;;;;;11.32;9.95;;;13.60;99.90;;;;;;5013578;28;20232;-77
2021/06/26 02:37:49;;;;;;;11.45;10.35;;;13.60;99.90;;;;;;5016528;28;20291;-78
2021/06/26 02:40:16;;;;;;;14.50;11.20;;;13.60;99.90;;;;;;5020228;28;20215;-76
2021/06/26 02:42:43;;;;;;;11.38;10.18;;;13.60;99.90;;;;;;5016921;28;20239;-77
2021/06/26 02:45:11;;;;;;;12.48;11.18;;;13.60;99.90;;;;;;5012966;28;20226;-76
2021/06/26 02:47:38;;;;;;;12.98;11.65;;;13.60;99.90;;;;;;5013703;28;20273;-77
2021/06/26 02:50:08;;;;;;;12.98;11.20;;;13.60;99.90;;;;;;5013355;28;20230;-76
2021/06/26 02:52:35;;;;;;;13.13;10.50;;;13.60;99.90;;;;;;5014069;28;20208;-77
2021/06/26 02:55:03;;;;;;;16.23;11.90;;;13.60;99.90;;;;;;5013468;28;20231;-77
2021/06/26 02:57:30;;;;;;;12.00;10.70;;;13.60;99.90;;;;;;5014513;28;20294;-75
2021/06/26 02:59:56;;;;;;;12.20;10.90;;;13.60;99.90;;;;;;5013472;28;20243;-76
2021/06/26 03:02:25;;;;;;;14.40;11.00;;;13.50;99.90;;;;;;5013825;28;20319;-75
2021/06/26 03:04:52;;;;;;;11.48;10.27;;;13.50;99.90;;;;;;5015082;28;20239;-77
2021/06/26 03:07:21;;;;;;;15.20;12.13;;;13.50;99.90;;;;;;5035407;28;20210;-76
2021/06/26 03:09:47;;;;;;;12.73;11.20;;;13.50;99.90;;;;;;5020541;28;20224;-76
2021/06/26 03:12:15;;;;;;;12.98;11.25;;;13.50;99.90;;;;;;5033850;28;20207;-76
2021/06/26 03:14:42;;;;;;;12.98;11.35;;;13.40;99.90;;;;;;5019790;28;20231;-77
2021/06/26 03:17:08;;;;;;;12.05;10.85;;;13.40;99.90;;;;;;5012056;28;20594;-77
2021/06/26 03:19:35;;;;;;;15.20;11.05;;;13.40;99.90;;;;;;5011920;28;20271;-76
2021/06/26 03:22:03;;;;;;;11.07;9.98;;;13.40;99.90;;;;;;5012245;28;20203;-76
2021/06/26 03:24:31;;;;;;;13.27;10.38;;;13.40;99.90;;;;;;5011960;28;20235;-77
2021/06/26 03:26:58;;;;;;;14.10;10.90;;;13.40;99.90;;;;;;5012992;28;20263;-77
2021/06/26 03:29:25;;;;;;;11.77;10.40;;;13.50;99.90;;;;;;5013539;28;20220;-78
2021/06/26 03:31:52;;;;;;;12.00;10.75;;;13.50;99.90;;;;;;5016046;28;20707;-78
2021/06/26 03:34:19;;;;;;;13.43;10.68;;;13.50;99.90;;;;;;5020643;28;20246;-78
2021/06/26 03:36:46;;;;;;;11.43;10.35;;;13.50;99.90;;;;;;5016610;28;20223;-77
2021/06/26 03:39:13;;;;;;;11.30;10.10;;;13.60;99.90;;;;;;5016137;28;20207;-77
2021/06/26 03:41:41;;;;;;;10.40;9.40;;;13.60;99.90;;;;;;5015639;28;20302;-78
2021/06/26 03:44:08;;;;;;;10.52;9.18;;;13.60;99.90;;;;;;5015714;28;20218;-76
2021/06/26 03:46:36;;;;;;;11.65;10.50;;;13.60;99.90;;;;;;5015697;28;20278;-78
2021/06/26 03:49:04;;;;;;;10.50;9.50;;;13.70;99.90;;;;;;5015889;28;20634;-77
2021/06/26 03:51:31;;;;;;;10.93;8.48;;;13.70;99.90;;;;;;5015600;28;20279;-77
2021/06/26 03:53:58;;;;;;;11.77;10.40;;;13.80;99.90;;;;;;5015386;28;20211;-77
2021/06/26 03:56:25;;;;;;;10.63;9.00;;;13.90;99.90;;;;;;5017871;28;20259;-77
2021/06/26 03:58:53;;;;;;;10.65;9.65;;;13.90;99.90;;;;;;5018369;28;20643;-77
2021/06/26 04:01:20;;;;;;;9.40;8.30;;;13.90;99.90;;;;;;5017661;28;20287;-77
2021/06/26 04:03:48;;;;;;;14.60;9.85;;;14.00;99.90;;;;;;5019688;28;20231;-77
2021/06/26 04:06:15;;;;;;;11.77;10.65;;;14.10;99.90;;;;;;5015690;28;20228;-78
2021/06/26 04:08:42;;;;;;;10.98;9.88;;;14.10;99.40;;;;;;5015299;28;20227;-77
2021/06/26 04:11:09;;;;;;;12.80;9.15;;;14.10;98.90;;;;;;5018074;28;20218;-77
2021/06/26 04:13:35;;;;;;;11.13;9.68;;;14.10;98.50;;;;;;5015285;28;20298;-77
2021/06/26 04:16:04;;;;;;;9.40;8.50;;;14.20;98.30;;;;;;5016643;28;20314;-76
2021/06/26 04:18:31;;;;;;;10.35;9.35;;;14.20;98.00;;;;;;5016590;28;20683;-78
2021/06/26 04:20:58;;;;;;;10.20;9.20;;;14.30;97.30;;;;;;5016361;28;20235;-77
2021/06/26 04:23:25;;;;;;;10.35;8.90;;;14.40;97.20;;;;;;5014907;28;20298;-77
2021/06/26 04:25:52;;;;;;;9.55;8.57;;;14.50;96.30;;;;;;5015095;28;20251;-77
2021/06/26 04:28:19;;;;;;;10.30;8.63;;;14.60;95.70;;;;;;5015219;28;20285;-77
2021/06/26 04:30:46;;;;;;;9.18;8.27;;;14.50;95.10;;;;;;5015145;28;20327;-77
2021/06/26 04:33:14;;;;;;;11.32;8.95;;;14.60;94.80;;;;;;5015458;28;20231;-77
2021/06/26 04:35:41;;;;;;;9.15;8.32;;;14.60;94.10;;;;;;5015503;28;20227;-78
2021/06/26 04:38:08;;;;;;;10.18;9.20;;;14.60;94.40;;;;;;5016236;28;20262;-77
2021/06/26 04:40:38;;;;;;;12.93;8.30;;;14.70;93.70;;;;;;5014963;28;20210;-77
2021/06/26 04:43:06;;;;;;;10.27;9.27;;;14.70;93.20;;;;;;5029444;28;20192;-76
2021/06/26 04:45:33;;;;;;;8.80;8.00;;;14.80;93.70;;;;;;5036824;28;20242;-77
2021/06/26 04:48:01;;;;;;;10.45;9.30;;;15.00;93.60;;;;;;5037559;28;20215;-77
2021/06/26 04:50:31;;;;;;;9.50;8.50;;;14.90;92.20;;;;;;5036321;28;20231;-77
2021/06/26 04:52:58;;;;;;;9.32;8.43;;;15.00;92.80;;;;;;5017504;28;20266;-76
2021/06/26 04:55:25;;;;;;;9.85;8.73;;;15.10;92.60;;;;;;5015266;28;20320;-77
2021/06/26 04:57:52;;;;;;;9.55;8.60;;;15.20;91.80;;;;;;5015322;28;20204;-77
2021/06/26 05:00:20;;;;;;;10.20;7.32;;;15.30;91.70;;;;;;5015306;28;20668;-77
2021/06/26 05:02:47;;;;;;;8.45;7.75;;;15.40;90.20;;;;;;5015368;28;20214;-77
2021/06/26 05:05:14;;;;;;;8.50;7.70;;;15.40;89.70;;;;;;5016447;28;20234;-77
2021/06/26 05:07:42;;;;;;;9.18;8.38;;;15.50;89.70;;;;;;5021844;28;20234;-77
2021/06/26 05:10:10;;;;;;;9.13;8.23;;;15.60;88.90;;;;;;5018471;28;20255;-77
2021/06/26 05:12:37;;;;;;;10.75;7.95;;;15.70;87.60;;;;;;5016774;28;20244;-76
2021/06/26 05:15:04;;;;;;;8.10;7.40;;;15.70;87.20;;;;;;5029481;28;20215;-76
2021/06/26 05:17:31;;;;;;;8.93;7.90;;;15.80;86.30;;;;;;5037707;28;20447;-77
2021/06/26 05:19:58;;;;;;;9.87;8.83;;;15.90;86.50;;;;;;5037254;28;20199;-76
2021/06/26 05:22:25;;;;;;;9.07;8.20;;;15.90;84.70;;;;;;5038552;28;20435;-76
2021/06/26 05:24:53;;;;;;;10.75;8.73;;;15.90;85.40;;;;;;5039067;28;20443;-76
2021/06/26 05:27:21;;;;;;;8.10;7.10;;;15.90;86.70;;;;;;5039343;28;20180;-76
2021/06/26 05:29:48;;;;;;;10.27;8.70;;;16.10;86.40;;;;;;5038915;28;20240;-77
2021/06/26 05:32:15;;;;;;;9.00;8.20;;;16.10;87.80;;;;;;5038881;28;20474;-76
2021/06/26 05:34:42;;;;;;;9.40;8.50;;;16.30;85.90;;;;;;5027911;28;20557;-78
2021/06/26 05:37:09;;;;;;;9.40;8.50;;;16.60;83.10;;;;;;5013883;28;20543;-77
2021/06/26 05:39:36;;;;;;;8.37;7.60;;;16.50;82.20;;;;;;5013762;28;20546;-77
2021/06/26 05:42:05;;;;;;;8.43;7.50;;;16.40;84.30;;;;;;5013339;28;20440;-77
2021/06/26 05:44:32;;;;;;;8.73;7.93;;;16.70;83.10;;;;;;5012809;28;21012;-77
2021/06/26 05:46:59;;;;;;;8.30;7.60;;;16.70;81.70;;;;;;5013155;28;20551;-77
2021/06/26 05:49:26;;;;;;;12.57;7.80;;;16.70;82.40;;;;;;5013390;28;20513;-77
2021/06/26 05:51:52;;;;;;;9.03;7.70;;;16.90;82.60;;;;;;5020115;28;20460;-76
2021/06/26 05:54:19;;;;;;;8.17;7.40;;;17.20;82.00;;;;;;5020322;28;20430;-77
2021/06/26 05:56:46;;;;;;;9.27;7.50;;;17.40;77.60;;;;;;5021854;28;20562;-77
2021/06/26 05:59:15;;;;;;;10.53;7.43;;;17.70;76.20;;;;;;5013261;28;20543;-77
2021/06/26 06:01:42;;;;;;;8.40;7.60;;;18.00;73.20;;;;;;5013138;28;20838;-76
2021/06/26 06:04:09;;;;;;;7.97;7.27;;;17.90;74.30;;;;;;5013986;28;20463;-76
2021/06/26 06:06:36;;;;;;;8.80;7.80;;;18.30;69.00;;;;;;5018198;28;20543;-77
2021/06/26 06:09:04;;;;;;;8.40;7.30;;;18.10;69.90;;;;;;5015962;28;20443;-77
2021/06/26 06:11:31;;;;;;;12.40;8.40;;;17.70;72.40;;;;;;5012859;28;20475;-77
2021/06/26 06:13:58;;;;;;;8.63;7.50;;;17.50;74.40;;;;;;5012568;28;20497;-77
2021/06/26 06:16:26;;;;;;;9.20;8.30;;;17.50;74.40;;;;;;5013592;28;20586;-77
2021/06/26 06:18:54;;;;;;;8.57;6.50;;;17.50;74.40;;;;;;5013808;28;20546;-76
2021/06/26 06:21:21;;;;;;;8.23;7.43;;;17.60;74.60;;;;;;5013054;28;20971;-77
2021/06/26 06:23:47;;;;;;;8.43;7.50;;;17.90;73.10;;;;;;5015565;28;20521;-76
2021/06/26 06:26:15;;;;;;;8.90;7.97;;;18.10;69.20;;;;;;5013518;28;20510;-75
2021/06/26 06:28:41;;;;;;;8.87;7.33;;;18.50;66.50;;;;;;5016026;28;20604;-77
2021/06/26 06:31:08;;;;;;;7.77;6.63;;;18.60;65.60;;;;;;5011299;28;20601;-77
2021/06/26 06:33:37;;;;;;;7.27;6.57;;;19.40;61.20;;;;;;5011961;28;20501;-77
2021/06/26 06:36:07;;;;;;;13.20;7.50;;;19.10;60.60;;;;;;5012669;28;21016;-77
2021/06/26 06:38:34;;;;;;;7.83;7.13;;;18.80;62.30;;;;;;5011410;28;20474;-76
2021/06/26 06:41:01;;;;;;;7.63;6.93;;;19.00;60.40;;;;;;5010837;28;20456;-77
2021/06/26 06:43:28;;;;;;;8.10;7.40;;;19.10;60.30;;;;;;5009683;28;20474;-76
2021/06/26 06:45:55;;;;;;;9.10;6.33;;;19.30;57.90;;;;;;5010432;28;20580;-77
2021/06/26 06:48:22;;;;;;;7.10;6.40;;;20.00;57.60;;;;;;5012765;28;20461;-77
2021/06/26 06:50:50;;;;;;;7.33;6.60;;;20.60;55.00;;;;;;5013345;28;20543;-77
2021/06/26 06:53:17;;;;;;;10.43;6.70;;;21.00;53.00;;;;;;5011462;28;20472;-77
2021/06/26 06:55:50;;;;;;;7.63;6.93;;;21.10;52.80;;;;;;5007218;28;20446;-77
2021/06/26 06:58:17;;;;;;;12.43;7.20;;;21.10;51.90;;;;;;5007728;28;20915;-76
2021/06/26 07:00:44;;;;;;;9.60;7.57;;;21.20;52.60;;;;;;5002494;28;20428;-77
2021/06/26 07:03:11;;;;;;;8.07;7.27;;;21.40;51.70;;;;;;4992434;28;20534;-77
2021/06/26 07:05:38;;;;;;;7.93;7.33;;;21.70;50.40;;;;;;5003745;28;20484;-77
2021/06/26 07:08:07;;;;;;;7.50;6.90;;;21.10;52.00;;;;;;5017253;28;20461;-77
2021/06/26 07:10:34;;;;;;;8.43;7.50;;;21.40;52.20;;;;;;5016970;28;20593;-76
2021/06/26 07:13:01;;;;;;;9.00;7.47;;;21.20;51.10;;;;;;5016782;28;20945;-77
2021/06/26 07:15:28;;;;;;;7.90;7.30;;;21.20;50.70;;;;;;5016156;28;20456;-77
2021/06/26 07:17:55;;;;;;;12.67;7.40;;;21.20;50.70;;;;;;5016721;28;20425;-79
2021/06/26 07:20:22;;;;;;;9.20;7.23;;;21.30;50.90;;;;;;5017249;28;20461;-77
2021/06/26 07:22:49;;;;;;;7.77;7.13;;;21.70;50.40;;;;;;5016640;28;20426;-78
2021/06/26 07:25:17;;;;;;;9.47;7.77;;;21.00;53.90;;;;;;5022221;28;20474;-78
2021/06/26 07:27:44;;;;;;;9.87;7.40;;;21.20;54.20;;;;;;5017144;28;20533;-78
2021/06/26 07:30:12;;;;;;;10.30;8.07;;;21.40;54.00;;;;;;5017212;28;21026;-77
2021/06/26 07:32:39;;;;;;;10.27;7.60;;;21.40;52.50;;;;;;5019884;28;20466;-79
2021/06/26 07:35:07;;;;;;;7.67;6.53;;;21.70;53.30;;;;;;5022070;28;20481;-78
2021/06/26 07:37:34;;;;;;;8.10;7.40;;;21.90;52.60;;;;;;5019450;28;20546;-78
2021/06/26 07:40:01;;;;;;;9.40;7.30;;;22.00;50.70;;;;;;5018918;28;21043;-77
2021/06/26 07:42:29;;;;;;;12.23;7.03;;;21.70;50.40;;;;;;5018918;28;20528;-76
2021/06/26 07:44:56;;;;;;;9.30;8.50;;;21.00;53.10;;;;;;5022466;28;20554;-77
2021/06/26 07:47:23;;;;;;;8.97;7.67;;;21.30;52.00;;;;;;5027365;28;20454;-77
2021/06/26 07:49:50;;;;;;;8.97;8.17;;;21.20;53.00;;;;;;5024657;28;20486;-78
2021/06/26 07:52:17;;;;;;;8.53;7.77;;;21.30;52.20;;;;;;5027568;28;20425;-77
2021/06/26 07:54:44;;;;;;;10.13;8.43;;;21.30;51.80;;;;;;5022876;28;20465;-77
2021/06/26 07:57:10;;;;;;;8.50;7.80;;;21.30;51.60;;;;;;5016419;28;20869;-78
2021/06/26 07:59:39;;;;;;;8.87;7.80;;;21.10;52.50;;;;;;5015463;28;20437;-77
2021/06/26 08:02:06;;;;;;;11.60;7.93;;;21.10;51.70;;;;;;5016095;28;20537;-78
2021/06/26 08:04:33;;;;;;;8.97;8.17;;;21.30;50.10;;;;;;5016612;28;20421;-77
2021/06/26 08:07:00;;;;;;;8.33;7.53;;;21.80;50.20;;;;;;5019730;28;20535;-76
2021/06/26 08:09:26;;;;;;;8.67;7.87;;;21.90;48.30;;;;;;5015232;28;20524;-76
2021/06/26 08:11:53;;;;;;;8.23;7.43;;;22.00;48.20;;;;;;5015610;28;20582;-77
2021/06/26 08:14:20;;;;;;;7.63;6.93;;;22.40;46.40;;;;;;5015319;28;20489;-76
2021/06/26 08:16:49;;;;;;;10.17;7.70;;;22.70;45.80;;;;;;5014015;28;20591;-77
2021/06/26 08:19:16;;;;;;;8.10;7.40;;;22.40;46.10;;;;;;5015456;28;20971;-78
2021/06/26 08:21:45;;;;;;;9.63;7.77;;;22.00;45.90;;;;;;5017660;28;20443;-77
2021/06/26 08:24:12;;;;;;;9.70;8.27;;;21.90;45.90;;;;;;5018346;28;20441;-79
2021/06/26 08:26:39;;;;;;;9.40;7.90;;;22.30;45.30;;;;;;5016918;28;20537;-77
2021/06/26 08:29:06;;;;;;;9.10;8.30;;;22.00;45.30;;;;;;5016826;28;20966;-78
2021/06/26 08:31:33;;;;;;;8.63;7.90;;;21.60;47.10;;;;;;5015336;28;20527;-78
2021/06/26 08:34:01;;;;;;;9.57;8.33;;;21.80;47.50;;;;;;5015530;28;20530;-77
2021/06/26 08:36:28;;;;;;;7.67;7.00;;;21.70;48.20;;;;;;5015961;28;20588;-78
2021/06/26 08:38:55;;;;;;;8.33;7.63;;;22.30;46.80;;;;;;5015532;28;21007;-78
2021/06/26 08:41:24;;;;;;;7.90;7.10;;;22.80;45.30;;;;;;5015880;28;20445;-79
2021/06/26 08:43:51;;;;;;;8.10;7.40;;;23.10;44.50;;;;;;5016010;28;20478;-77
2021/06/26 08:46:20;;;;;;;8.37;7.67;;;23.60;43.70;;;;;;5016691;28;20567;-77
2021/06/26 08:48:47;;;;;;;8.43;7.23;;;24.10;43.00;;;;;;5016989;28;20493;-77
2021/06/26 08:51:15;;;;;;;8.40;7.60;;;24.50;41.60;;;;;;5016304;28;20554;-77
2021/06/26 08:53:42;;;;;;;8.40;7.80;;;24.00;42.60;;;;;;5015702;28;20447;-78
2021/06/26 08:56:09;;;;;;;11.30;8.30;;;24.00;42.60;;;;;;5016627;28;20572;-78
2021/06/26 08:58:36;;;;;;;9.07;8.17;;;23.60;42.20;;;;;;5016052;28;20474;-78
2021/06/26 09:01:03;;;;;;;10.03;9.20;;;23.80;42.30;;;;;;5017108;28;20452;-78
2021/06/26 09:03:30;;;;;;;9.43;8.43;;;23.90;42.50;;;;;;5015406;28;20448;-77
2021/06/26 09:06:06;;;;;;;9.20;8.30;;;23.30;41.90;;;;;;5017475;28;20482;-77
2021/06/26 09:08:34;;;;;;;9.40;7.70;;;23.40;42.60;;;;;;5018893;28;20433;-78
2021/06/26 09:11:01;;;;;;;12.20;8.70;;;23.70;42.30;;;;;;5018933;28;20589;-77
2021/06/26 09:13:33;;;;;;;9.63;8.20;;;23.60;42.20;;;;;;5015692;28;20496;-77
2021/06/26 09:16:06;;;;;;;8.63;7.83;;;23.50;41.60;;;;;;5014571;28;20489;-77
2021/06/26 09:18:41;;;;;;;9.43;8.10;;;23.50;41.80;;;;;;5014699;28;20530;-77
2021/06/26 09:21:20;;;;;;;8.43;7.50;;;23.70;40.70;;;;;;5014319;28;20476;-78
2021/06/26 09:24:01;;;;;;;8.63;7.83;;;24.10;39.90;;;;;;5014071;28;20515;-77
2021/06/26 09:26:28;;;;;;;12.67;8.00;;;23.80;42.30;;;;;;5013984;28;20952;-77
2021/06/26 09:28:55;;;;;;;9.30;8.50;;;23.40;42.00;;;;;;5014368;28;20432;-77
2021/06/26 09:31:22;;;;;;;9.83;8.87;;;23.60;42.20;;;;;;5014565;28;20793;-78
2021/06/26 09:33:57;;;;;;;9.13;8.23;;;23.80;41.50;;;;;;5014286;28;20454;-78
2021/06/26 09:36:26;;;;;;;8.37;7.67;;;24.00;40.40;;;;;;5015353;28;20452;-78
2021/06/26 09:39:00;;;;;;;8.33;7.63;;;24.20;41.00;;;;;;5019928;28;20421;-77
2021/06/26 09:41:28;;;;;;;8.70;7.63;;;24.20;41.60;;;;;;5022807;28;20458;-77
2021/06/26 09:43:56;;;;;;;7.73;7.13;;;24.30;40.90;;;;;;5018421;28;20493;-77
2021/06/26 09:46:23;;;;;;;8.97;8.07;;;24.80;39.40;;;;;;5017969;28;20509;-77
2021/06/26 09:48:54;;;;;;;8.40;7.30;;;24.90;38.80;;;;;;5015240;28;20678;-77
2021/06/26 09:51:27;;;;;;;8.13;7.33;;;24.90;39.10;;;;;;5013999;28;21072;-78
2021/06/26 09:54:00;;;;;;;8.60;7.80;;;24.80;39.60;;;;;;5014532;28;20468;-79
2021/06/26 09:56:42;;;;;;;7.90;7.07;;;24.70;39.80;;;;;;5015443;28;20516;-78
2021/06/26 09:59:10;;;;;;;8.00;7.30;;;24.70;39.70;;;;;;5024319;28;20506;-77
2021/06/26 10:01:41;;;;;;;9.17;8.30;;;24.80;38.80;;;;;;5030493;28;20450;-76
2021/06/26 10:04:08;;;;;;;8.43;7.67;;;24.30;39.90;;;;;;5023052;28;20464;-79
2021/06/26 10:06:49;;;;;;;;;;;;;;;;;;;;;
2021/06/26 10:09:17;;;;;;;10.43;6.10;;;25.10;39.10;;;;;;5017758;28;20432;-77
2021/06/26 10:11:45;;;;;;;8.20;7.33;;;25.20;37.80;;;;;;5024299;28;20456;-79
2021/06/26 10:14:12;;;;;;;7.93;7.13;;;25.00;38.30;;;;;;5026862;28;20422;-77
2021/06/26 10:16:41;;;;;;;7.53;6.90;;;25.00;38.10;;;;;;5019011;28;20457;-79
2021/06/26 10:19:10;;;;;;;7.23;6.60;;;25.30;37.60;;;;;;5019030;28;20463;-77
2021/06/26 10:21:37;;;;;;;7.90;7.10;;;25.10;37.90;;;;;;5013443;28;20546;-78
2021/06/26 10:24:09;;;;;;;7.50;6.90;;;24.50;40.50;;;;;;5014518;28;20464;-79
2021/06/26 10:26:38;;;;;;;7.20;6.63;;;24.80;39.60;;;;;;5019460;28;20493;-79
2021/06/26 10:29:06;;;;;;;9.13;8.33;;;25.40;37.40;;;;;;5020777;28;20461;-79
2021/06/26 10:31:35;;;;;;;8.70;7.80;;;25.10;37.80;;;;;;5014099;28;20595;-79
2021/06/26 10:34:13;;;;;;;8.10;7.40;;;24.30;39.80;;;;;;5014107;28;20940;-78
2021/06/26 10:36:44;;;;;;;8.30;7.27;;;24.50;39.30;;;;;;5013499;28;20449;-78
2021/06/26 10:39:46;;;;;;;8.43;6.63;;;25.00;37.60;;;;;;5013052;28;20947;-79
2021/06/26 10:42:34;;;;;;;7.83;7.03;;;25.60;36.80;;;;;;5014080;28;20437;-77
2021/06/26 10:45:02;;;;;;;7.67;6.87;;;26.00;36.00;;;;;;5009170;28;20482;-78
2021/06/26 10:47:36;;;;;;;7.43;6.83;;;25.40;35.60;;;;;;5014312;28;20456;-79
2021/06/26 10:50:11;;;;;;;8.37;7.57;;;24.90;36.60;;;;;;5014608;28;20443;-77
2021/06/26 10:52:48;;;;;;;7.63;7.03;;;24.70;37.30;;;;;;5012863;28;20536;-78
2021/06/26 10:55:27;;;;;;;8.60;7.00;;;24.70;37.30;;;;;;5012330;28;20482;-78
2021/06/26 10:57:56;;;;;;;9.00;6.93;;;25.10;36.30;;;;;;5012535;28;20982;-78
2021/06/26 11:07:06;;;;;;;7.27;6.57;;;25.40;35.80;;;;;;5013965;28;20401;-79
2021/06/26 11:09:37;;;;;;;7.67;6.87;;;25.50;35.90;;;;;;5013606;28;20477;-78
2021/06/26 11:12:12;;;;;;;7.50;6.90;;;25.60;34.60;;;;;;5014087;28;20522;-78
2021/06/26 11:14:50;;;;;;;9.57;6.30;;;25.50;36.50;;;;;;5014077;28;20948;-77
2021/06/26 11:17:17;;;;;;;6.70;6.10;;;25.70;35.60;;;;;;5017011;28;20513;-78
2021/06/26 11:19:44;;;;;;;6.77;6.30;;;26.30;34.00;;;;;;5017908;28;21018;-78
2021/06/26 11:22:15;;;;;;;6.60;6.03;;;25.70;34.10;;;;;;5022843;28;20478;-78
2021/06/26 11:24:45;;;;;;;6.00;5.60;;;25.40;33.40;;;;;;5035862;28;20414;-77
2021/06/26 11:27:18;;;;;;;6.90;6.37;;;25.30;34.20;;;;;;5032660;28;20438;-79
2021/06/26 11:29:47;;;;;;;5.77;5.27;;;24.80;35.70;;;;;;5034977;28;20420;-78
2021/06/26 11:32:25;;;;;;;7.80;7.00;;;25.00;35.60;;;;;;5026103;28;20497;-78
2021/06/26 11:34:57;;;;;;;7.40;6.80;;;25.00;34.80;;;;;;5017960;28;20428;-78
2021/06/26 11:37:25;;;;;;;7.50;6.80;;;24.60;35.80;;;;;;5015514;28;20486;-79
2021/06/26 11:39:52;;;;;;;6.70;6.20;;;24.80;35.70;;;;;;5017062;28;20492;-79
2021/06/26 11:42:20;;;;;;;7.00;6.50;;;24.80;36.40;;;;;;5013723;28;20427;-77
2021/06/26 11:44:48;;;;;;;9.47;7.27;;;25.10;36.20;;;;;;5013131;28;20429;-78
2021/06/26 11:47:15;;;;;;;6.30;5.80;;;25.60;33.50;;;;;;5013820;28;20437;-78
2021/06/26 11:49:44;;;;;;;6.33;5.73;;;25.40;35.30;;;;;;5015912;28;20534;-79
2021/06/26 11:52:13;;;;;;;7.33;6.63;;;25.10;35.80;;;;;;5018162;28;20565;-78
2021/06/26 11:54:41;;;;;;;6.90;6.40;;;25.30;35.00;;;;;;5024200;28;20460;-77
2021/06/26 11:57:12;;;;;;;6.83;6.33;;;25.10;36.00;;;;;;5027212;28;20509;-77
2021/06/26 11:59:45;;;;;;;7.30;6.30;;;25.50;34.80;;;;;;5020953;28;20478;-77
2021/06/26 12:02:13;;;;;;;7.23;6.73;;;25.60;34.50;;;;;;5017030;28;20454;-78
2021/06/26 12:04:40;;;;;;;9.93;6.30;;;25.90;33.80;;;;;;5026784;28;20464;-78
2021/06/26 12:07:12;;;;;;;6.20;5.60;;;26.00;33.80;;;;;;5017919;28;20558;-78
2021/06/26 12:09:41;;;;;;;6.93;6.47;;;26.10;33.90;;;;;;5015787;28;20466;-79
2021/06/26 12:12:09;;;;;;;6.50;6.10;;;26.20;34.40;;;;;;5016637;28;20541;-77
2021/06/26 12:14:36;;;;;;;6.23;5.73;;;26.00;33.80;;;;;;5018341;28;20433;-78
2021/06/26 12:17:09;;;;;;;6.80;6.10;;;25.40;34.00;;;;;;5019185;28;20839;-78
2021/06/26 12:19:38;;;;;;;6.80;6.20;;;25.30;34.70;;;;;;5022204;28;20952;-78
2021/06/26 12:22:06;;;;;;;6.77;6.27;;;25.30;34.80;;;;;;5029348;28;20543;-78
2021/06/26 12:24:37;;;;;;;6.33;5.73;;;25.10;35.40;;;;;;5028324;28;20533;-78
2021/06/26 12:27:16;;;;;;;6.57;6.07;;;25.40;34.30;;;;;;5022124;28;20494;-78
2021/06/26 12:29:55;;;;;;;6.90;6.30;;;25.50;34.30;;;;;;5035717;28;20459;-78
2021/06/26 12:32:27;;;;;;;6.47;5.97;;;26.00;33.80;;;;;;5027035;28;20490;-79
2021/06/26 12:34:54;;;;;;;6.60;6.00;;;26.00;33.80;;;;;;5035393;28;20503;-79
2021/06/26 12:37:30;;;;;;;6.73;6.23;;;26.30;34.00;;;;;;5023636;28;20964;-79
2021/06/26 12:40:12;;;;;;;6.60;6.07;;;26.30;34.00;;;;;;5018128;28;20491;-79
2021/06/26 12:42:41;;;;;;;7.13;6.43;;;26.40;32.90;;;;;;5016884;28;20449;-78
2021/06/26 12:45:09;;;;;;;6.50;6.00;;;26.60;32.40;;;;;;5017881;28;20455;-79
2021/06/26 12:47:36;;;;;;;7.33;6.13;;;26.40;32.60;;;;;;5016902;28;20491;-79
2021/06/26 12:50:09;;;;;;;10.50;8.90;;;26.70;31.70;;;;;;5016131;28;20521;-79
2021/06/26 12:52:37;;;;;;;6.93;6.43;;;26.70;31.70;;;;;;5016464;28;20494;-78